Time;durP1;ratioP1;P1;durP2;ratioP2;P2;SDS_P1;SDS_P2;PMS_P1;PMS_P2;Temp;Humidity;BMP_temperature;BMP_pressure;BME280_temperature;BME280_humidity;BME280_pressure;Samples;Min_cycle;Max_cycle;Signal;HPM_P1;HPM_P2
2023/10/21 00:00:24;;;;;;;17.90;10.17;;;9.10;99.90;;;;;;4852087;29;20318;-81
2023/10/21 00:03:29;;;;;;;18.80;11.17;;;9.10;99.90;;;;;;4810240;29;20230;-81
2023/10/21 00:06:37;;;;;;;20.03;10.40;;;9.10;99.90;;;;;;4796744;29;20306;-81
2023/10/21 00:09:09;;;;;;;21.57;10.43;;;9.00;99.90;;;;;;4795673;29;20218;-78
2023/10/21 00:11:40;;;;;;;20.67;10.87;;;9.10;99.90;;;;;;4793331;29;20245;-78
2023/10/21 00:15:29;;;;;;;20.80;11.30;;;9.20;99.90;;;;;;4786676;29;20209;-78
2023/10/21 00:18:57;;;;;;;19.73;10.90;;;9.40;99.90;;;;;;4752066;30;20229;-80
2023/10/21 00:21:56;;;;;;;20.00;11.07;;;9.20;99.90;;;;;;4766332;30;20209;-82
2023/10/21 00:25:37;;;;;;;24.07;11.03;;;9.30;99.90;;;;;;4813115;29;20371;-79
2023/10/21 00:28:37;;;;;;;20.83;11.20;;;9.10;99.90;;;;;;4868237;29;20212;-80
2023/10/21 00:31:52;;;;;;;19.67;11.40;;;9.10;99.90;;;;;;4840085;29;20208;-78
2023/10/21 00:34:49;;;;;;;18.87;11.13;;;9.10;99.90;;;;;;4896307;29;20220;-79
2023/10/21 00:37:39;;;;;;;24.20;11.90;;;9.00;99.90;;;;;;4877167;29;20333;-78
2023/10/21 00:40:39;;;;;;;20.27;11.63;;;9.00;99.90;;;;;;4910352;29;20230;-79
2023/10/21 00:44:05;;;;;;;21.33;12.00;;;9.30;99.90;;;;;;4938936;29;20222;-77
2023/10/21 00:47:05;;;;;;;21.00;11.83;;;9.40;99.90;;;;;;4910433;29;20342;-78
2023/10/21 00:50:21;;;;;;;23.63;11.33;;;9.30;99.90;;;;;;4934049;29;20360;-78
2023/10/21 00:53:47;;;;;;;29.50;12.83;;;9.20;99.90;;;;;;4959621;28;20562;-78
2023/10/21 00:57:15;;;;;;;19.17;11.50;;;9.20;99.90;;;;;;4991708;28;20228;-78
2023/10/21 01:01:01;;;;;;;19.60;11.67;;;9.10;99.90;;;;;;4968676;28;20282;-80
2023/10/21 01:03:56;;;;;;;21.60;11.70;;;9.20;99.90;;;;;;4943647;28;20226;-82
2023/10/21 01:06:39;;;;;;;21.10;12.13;;;9.20;99.90;;;;;;4934761;29;20698;-81
2023/10/21 01:09:19;;;;;;;20.23;11.87;;;9.20;99.90;;;;;;4936605;29;20201;-78
2023/10/21 01:12:42;;;;;;;22.80;11.97;;;9.40;99.90;;;;;;4935128;28;20206;-78
2023/10/21 01:15:53;;;;;;;25.83;12.70;;;9.30;99.90;;;;;;4952275;29;20221;-79
2023/10/21 01:18:35;;;;;;;20.47;11.87;;;9.20;99.90;;;;;;4950340;28;20246;-80
2023/10/21 01:21:12;;;;;;;21.87;12.63;;;9.20;99.90;;;;;;4950234;28;20229;-81
2023/10/21 01:24:34;;;;;;;20.60;11.87;;;9.20;99.90;;;;;;4951617;28;20190;-79
2023/10/21 01:27:07;;;;;;;22.57;12.67;;;9.50;99.90;;;;;;4963189;28;20763;-78
2023/10/21 01:34:53;;;;;;;19.00;11.40;;;9.30;99.90;;;;;;4912244;29;20324;-81
2023/10/21 01:41:13;;;;;;;21.70;12.07;;;9.40;99.90;;;;;;4820051;29;20718;-80
2023/10/21 01:44:27;;;;;;;23.50;11.73;;;9.40;99.90;;;;;;4817745;29;20302;-80
2023/10/21 01:47:29;;;;;;;23.17;12.27;;;9.50;99.90;;;;;;4781660;30;20212;-81
2023/10/21 01:51:24;;;;;;;20.90;11.90;;;9.40;99.90;;;;;;4748995;30;20228;-81
2023/10/21 01:54:11;;;;;;;20.30;12.07;;;9.40;99.90;;;;;;4718894;30;20201;-81
2023/10/21 01:57:00;;;;;;;20.60;11.97;;;9.20;99.90;;;;;;4716250;30;20698;-79
2023/10/21 02:00:50;;;;;;;;;;;;;;;;;;;;;
2023/10/21 02:03:55;;;;;;;22.43;12.33;;;9.40;99.90;;;;;;4711391;30;20737;-79
2023/10/21 02:06:37;;;;;;;20.97;12.17;;;9.30;99.90;;;;;;4705751;30;20592;-79
2023/10/21 02:09:21;;;;;;;20.50;11.87;;;9.50;99.90;;;;;;4729149;30;20650;-76
2023/10/21 02:13:02;;;;;;;22.13;11.90;;;9.30;99.90;;;;;;4766488;30;20189;-79
2023/10/21 02:16:05;;;;;;;21.47;12.43;;;9.10;99.90;;;;;;4768780;30;20529;-79
2023/10/21 02:19:01;;;;;;;20.90;12.47;;;9.40;99.90;;;;;;4767247;30;20264;-79
2023/10/21 02:22:30;;;;;;;23.37;12.27;;;9.20;99.90;;;;;;4769286;30;20318;-81
2023/10/21 02:25:31;;;;;;;23.03;12.07;;;9.40;99.90;;;;;;4768827;29;20271;-79
2023/10/21 02:28:46;;;;;;;21.57;12.27;;;9.50;99.90;;;;;;4518529;27;15154300;-78
2023/10/21 02:31:57;;;;;;;19.93;11.63;;;9.40;99.90;;;;;;4966054;28;20684;-76
2023/10/21 02:35:15;;;;;;;20.37;11.90;;;9.40;99.90;;;;;;4945186;29;20602;-78
2023/10/21 02:38:00;;;;;;;20.10;11.73;;;9.60;99.90;;;;;;4946744;29;20628;-78
2023/10/21 02:41:19;;;;;;;;;;;;;;;;;;;;;
2023/10/21 02:44:10;;;;;;;23.07;12.13;;;9.50;99.90;;;;;;4870522;29;20208;-78
2023/10/21 02:47:39;;;;;;;19.13;11.60;;;9.40;99.90;;;;;;4804521;29;20786;-80
2023/10/21 02:50:37;;;;;;;17.60;11.20;;;9.30;99.90;;;;;;4801594;29;20218;-80
2023/10/21 03:01:36;;;;;;;18.80;11.63;;;9.40;99.90;;;;;;4710342;30;20731;-81
2023/10/21 03:05:05;;;;;;;21.87;11.93;;;9.30;99.90;;;;;;4702691;30;20336;-77
2023/10/21 03:08:10;;;;;;;24.13;12.20;;;9.60;99.90;;;;;;4701151;30;20247;-78
2023/10/21 03:11:11;;;;;;;20.80;11.90;;;9.30;99.90;;;;;;4745122;30;20213;-80
2023/10/21 03:14:22;;;;;;;23.17;12.10;;;9.20;99.90;;;;;;4742820;30;20342;-79
2023/10/21 03:21:31;;;;;;;20.93;11.87;;;9.30;99.90;;;;;;4762080;30;20208;-79
2023/10/21 03:24:58;;;;;;;21.33;11.80;;;9.30;99.90;;;;;;4749621;30;20245;-76
2023/10/21 03:28:07;;;;;;;21.70;11.90;;;9.50;99.90;;;;;;4747127;30;20751;-79
2023/10/21 03:31:06;;;;;;;19.17;12.03;;;9.40;99.90;;;;;;4706504;30;20305;-78
2023/10/21 03:34:37;;;;;;;22.60;12.40;;;9.30;99.90;;;;;;4685146;30;20243;-77
2023/10/21 03:37:34;;;;;;;20.23;12.37;;;9.30;99.90;;;;;;4690037;30;20277;-78
2023/10/21 03:40:00;;;;;;;21.60;11.90;;;9.50;99.90;;;;;;4665664;30;20682;-77
2023/10/21 03:43:01;;;;;;;20.23;12.47;;;9.50;99.90;;;;;;4682516;30;20198;-78
2023/10/21 03:52:42;;;;;;;19.70;11.70;;;9.50;99.90;;;;;;4716007;30;20224;-81
2023/10/21 03:55:23;;;;;;;20.47;12.27;;;9.50;99.90;;;;;;4716837;30;20202;-77
2023/10/21 03:58:43;;;;;;;;;;;;;;;;;;;;;
2023/10/21 04:01:46;;;;;;;21.27;12.73;;;9.50;99.90;;;;;;4694070;30;20297;-80
2023/10/21 04:04:35;;;;;;;23.03;12.13;;;9.40;99.90;;;;;;4678014;30;20200;-79
2023/10/21 04:07:39;;;;;;;20.93;12.00;;;9.50;99.90;;;;;;4656829;30;20796;-79
2023/10/21 04:10:47;;;;;;;20.50;12.40;;;9.70;99.90;;;;;;4644125;30;20208;-77
2023/10/21 04:17:40;;;;;;;19.77;11.57;;;9.40;99.90;;;;;;4697845;30;20196;-78
2023/10/21 04:23:33;;;;;;;18.57;12.80;;;9.60;99.90;;;;;;4679456;30;20275;-78
2023/10/21 04:26:43;;;;;;;19.27;11.70;;;9.70;99.90;;;;;;4739305;30;20281;-82
2023/10/21 04:34:18;;;;;;;19.80;11.43;;;9.70;99.90;;;;;;4780021;29;20221;-77
2023/10/21 04:37:25;;;;;;;18.37;12.07;;;9.70;99.90;;;;;;4766762;30;20240;-78
2023/10/21 04:40:06;;;;;;;22.43;12.23;;;9.60;99.90;;;;;;4766314;30;20243;-81
2023/10/21 04:43:22;;;;;;;19.10;12.30;;;9.60;99.90;;;;;;4781761;30;20710;-81
2023/10/21 04:47:34;;;;;;;19.70;11.83;;;9.70;99.90;;;;;;4771574;29;20247;-78
2023/10/21 04:50:44;;;;;;;20.77;11.73;;;9.70;99.90;;;;;;4753974;30;20669;-79
2023/10/21 04:53:31;;;;;;;19.03;11.23;;;9.50;99.90;;;;;;4783584;29;20200;-79
2023/10/21 04:56:45;;;;;;;20.27;12.73;;;9.50;99.90;;;;;;4741880;30;20294;-80
2023/10/21 04:59:41;;;;;;;19.60;12.00;;;9.80;99.90;;;;;;4745317;30;20335;-78
2023/10/21 05:03:02;;;;;;;20.83;12.77;;;9.70;99.90;;;;;;4752167;30;20208;-78
2023/10/21 05:05:51;;;;;;;20.00;11.30;;;9.70;99.90;;;;;;4769057;30;20212;-79
2023/10/21 05:12:43;;;;;;;19.40;11.57;;;9.90;99.90;;;;;;4800948;29;20212;-78
2023/10/21 05:16:12;;;;;;;20.47;12.13;;;9.70;99.90;;;;;;4785843;29;20203;-78
2023/10/21 05:19:50;;;;;;;23.77;11.90;;;9.70;99.90;;;;;;4805196;29;20210;-76
2023/10/21 05:23:00;;;;;;;21.10;12.40;;;9.80;99.90;;;;;;4782744;29;20248;-77
2023/10/21 05:26:06;;;;;;;23.10;12.77;;;9.80;99.90;;;;;;4722717;30;20292;-77
2023/10/21 05:29:38;;;;;;;20.20;12.20;;;9.90;99.90;;;;;;4765114;29;20737;-80
2023/10/21 05:32:30;;;;;;;19.73;12.27;;;9.60;99.90;;;;;;4749124;30;20243;-80
2023/10/21 05:35:42;;;;;;;18.23;11.53;;;9.90;99.90;;;;;;4747523;30;20274;-81
2023/10/21 05:39:23;;;;;;;18.43;11.50;;;9.90;99.90;;;;;;4746794;30;20261;-80
2023/10/21 05:47:38;;;;;;;20.90;12.83;;;9.90;99.90;;;;;;4712988;30;20287;-78
2023/10/21 05:51:51;;;;;;;20.40;12.47;;;9.80;99.90;;;;;;4756122;30;20809;-78
2023/10/21 05:55:17;;;;;;;24.40;12.40;;;9.80;99.90;;;;;;4748443;30;20200;-78
2023/10/21 05:58:39;;;;;;;20.77;12.07;;;9.80;99.90;;;;;;4765866;30;20199;-76
2023/10/21 06:01:51;;;;;;;22.50;12.47;;;9.90;99.90;;;;;;4714779;30;20787;-80
2023/10/21 06:05:24;;;;;;;23.50;13.03;;;9.90;99.90;;;;;;4745071;30;20197;-80
2023/10/21 06:09:35;;;;;;;20.37;12.60;;;9.90;99.90;;;;;;4727797;30;20190;-81
2023/10/21 06:12:52;;;;;;;21.97;12.53;;;9.90;99.90;;;;;;4725263;30;20297;-78
2023/10/21 06:19:52;;;;;;;20.10;12.17;;;9.80;99.90;;;;;;4704580;30;20216;-81
2023/10/21 06:23:22;;;;;;;20.93;13.03;;;10.00;99.90;;;;;;4690466;30;20206;-81
2023/10/21 06:26:22;;;;;;;20.30;13.20;;;10.00;99.90;;;;;;4705265;30;20696;-80
2023/10/21 06:32:09;;;;;;;20.57;13.00;;;10.00;99.90;;;;;;4708173;30;20286;-81
2023/10/21 06:35:21;;;;;;;21.40;12.80;;;10.00;99.90;;;;;;4693028;30;20203;-81
2023/10/21 06:38:40;;;;;;;24.50;13.40;;;10.20;99.90;;;;;;4683578;30;20210;-81
2023/10/21 06:42:00;;;;;;;29.50;14.30;;;10.20;99.90;;;;;;4705097;30;20215;-80
2023/10/21 06:44:28;;;;;;;22.00;13.20;;;10.20;99.90;;;;;;4694791;30;20298;-80
2023/10/21 06:47:43;;;;;;;22.10;13.77;;;10.20;99.90;;;;;;4707095;30;20283;-81
2023/10/21 07:00:20;;;;;;;;;;;;;;;;;;;;;
2023/10/21 07:06:50;;;;;;;;;;;;;;;;;;;;;
2023/10/21 07:09:50;;;;;;;23.50;13.63;;;10.50;99.90;;;;;;4710167;30;20195;-79
2023/10/21 07:17:27;;;;;;;22.37;12.93;;;10.60;99.90;;;;;;4666817;30;20223;-80
2023/10/21 07:20:20;;;;;;;20.47;13.17;;;10.60;99.90;;;;;;4673302;30;20543;-80
2023/10/21 07:24:07;;;;;;;20.63;13.20;;;10.60;99.90;;;;;;4657466;30;20296;-79
2023/10/21 07:30:41;;;;;;;23.23;12.83;;;10.70;99.90;;;;;;5346348;23;20266;-79
2023/10/21 07:37:49;;;;;;;;;;;;;;;;;;;;;
2023/10/21 07:41:19;;;;;;;19.50;13.40;;;10.90;99.90;;;;;;4922440;29;20318;-79
2023/10/21 07:45:11;;;;;;;23.50;12.87;;;10.90;99.90;;;;;;4866522;29;20201;-80
2023/10/21 07:48:50;;;;;;;20.37;13.10;;;10.60;99.90;;;;;;4857075;29;20237;-79
2023/10/21 07:51:48;;;;;;;23.23;13.77;;;10.90;99.90;;;;;;4783953;30;20212;-79
2023/10/21 07:58:49;;;;;;;23.33;13.27;;;11.00;99.90;;;;;;4770819;30;20416;-80
2023/10/21 08:01:49;;;;;;;20.90;13.07;;;11.10;99.90;;;;;;4780810;30;20215;-78
2023/10/21 08:08:25;;;;;;;20.97;13.33;;;11.10;99.90;;;;;;4749101;30;20799;-77
2023/10/21 08:11:11;;;;;;;20.13;13.30;;;11.10;99.90;;;;;;4748853;30;20340;-78
2023/10/21 08:14:12;;;;;;;23.37;13.23;;;11.20;99.90;;;;;;4748095;30;20693;-77
2023/10/21 08:21:38;;;;;;;;;;;;;;;;;;;;;
2023/10/21 08:28:36;;;;;;;19.73;12.87;;;11.60;99.90;;;;;;4765891;30;20263;-76
2023/10/21 08:34:59;;;;;;;17.70;11.70;;;11.60;99.90;;;;;;4731447;30;20202;-80
2023/10/21 08:37:47;;;;;;;23.23;13.47;;;11.50;99.90;;;;;;4731314;30;20206;-80
2023/10/21 08:40:35;;;;;;;;;;;;;;;;;;;;;
2023/10/21 08:43:40;;;;;;;19.70;12.93;;;11.40;99.90;;;;;;4682551;30;20199;-80
2023/10/21 08:46:50;;;;;;;19.20;12.40;;;11.50;99.90;;;;;;4653587;30;20258;-78
2023/10/21 08:53:14;;;;;;;21.10;12.77;;;11.20;99.90;;;;;;4692834;30;20238;-76
2023/10/21 08:56:36;;;;;;;20.13;13.07;;;11.50;99.90;;;;;;4663819;30;20695;-78
2023/10/21 08:59:55;;;;;;;17.57;12.13;;;11.50;99.90;;;;;;4706634;30;20207;-78
2023/10/21 09:03:19;;;;;;;;;;;;;;;;;;;;;
2023/10/21 09:06:25;;;;;;;28.83;14.23;;;11.40;99.90;;;;;;4726723;30;20266;-81
2023/10/21 09:09:53;;;;;;;19.13;12.70;;;11.30;99.90;;;;;;4743187;30;20209;-78
2023/10/21 09:13:25;;;;;;;20.23;12.30;;;11.50;99.90;;;;;;4851959;29;20205;-80
2023/10/21 09:16:55;;;;;;;19.80;12.93;;;11.40;99.90;;;;;;4879694;29;20614;-78
2023/10/21 09:20:16;;;;;;;21.07;12.37;;;11.60;99.90;;;;;;5147062;23;20266;-79
2023/10/21 09:23:52;;;;;;;22.37;13.37;;;11.60;99.90;;;;;;4967332;28;20566;-80
2023/10/21 09:27:43;;;;;;;22.03;12.67;;;11.70;99.90;;;;;;4901395;29;20223;-78
2023/10/21 09:31:35;;;;;;;19.43;12.13;;;11.70;99.90;;;;;;4917794;29;20701;-78
2023/10/21 09:34:52;;;;;;;24.10;13.57;;;11.70;99.90;;;;;;4869872;29;20345;-80
2023/10/21 09:38:16;;;;;;;19.30;12.53;;;11.90;99.90;;;;;;4857340;29;20223;-80
2023/10/21 09:41:47;;;;;;;33.33;13.10;;;11.90;99.90;;;;;;4879981;29;20363;-80
2023/10/21 09:45:12;;;;;;;18.90;12.27;;;12.00;99.90;;;;;;4893413;29;20200;-80
2023/10/21 09:48:18;;;;;;;20.67;12.47;;;11.90;99.90;;;;;;4893277;29;20244;-78
2023/10/21 09:51:23;;;;;;;21.00;12.40;;;11.90;99.90;;;;;;4893720;29;20845;-78
2023/10/21 09:54:53;;;;;;;19.97;12.20;;;12.10;99.90;;;;;;4897576;29;20203;-80
2023/10/21 09:58:29;;;;;;;19.43;13.53;;;12.10;99.90;;;;;;4913934;29;20416;-80
2023/10/21 10:01:24;;;;;;;20.77;12.60;;;12.00;99.90;;;;;;4912354;29;20672;-80
2023/10/21 10:04:40;;;;;;;18.67;12.33;;;12.00;99.90;;;;;;5259775;22;20238;-81
2023/10/21 10:08:20;;;;;;;18.90;12.60;;;12.10;99.90;;;;;;5018240;28;20222;-78
2023/10/21 10:11:43;;;;;;;21.17;12.70;;;12.30;99.90;;;;;;5045639;28;20209;-80
2023/10/21 10:14:38;;;;;;;22.13;13.23;;;12.50;99.90;;;;;;4952734;28;20200;-76
2023/10/21 10:17:56;;;;;;;21.40;12.63;;;12.50;99.90;;;;;;4953041;28;20201;-77
2023/10/21 10:21:57;;;;;;;19.47;12.43;;;12.60;99.90;;;;;;4983570;28;20216;-78
2023/10/21 10:29:46;;;;;;;18.83;12.00;;;13.30;99.90;;;;;;4908612;29;20192;-77
2023/10/21 10:33:06;;;;;;;22.60;11.90;;;14.00;99.90;;;;;;4877536;22;20227;-80
2023/10/21 10:37:28;;;;;;;;;;;;;;;;;;;;;
2023/10/21 10:41:11;;;;;;;17.83;10.47;;;15.50;99.90;;;;;;4864232;29;20210;-79
2023/10/21 10:44:53;;;;;;;21.80;10.50;;;15.70;99.90;;;;;;4845240;29;20201;-80
2023/10/21 10:48:16;;;;;;;18.43;9.77;;;16.10;99.90;;;;;;4854222;29;20236;-77
2023/10/21 10:51:46;;;;;;;;;;;;;;;;;;;;;
2023/10/21 10:54:45;;;;;;;19.47;10.20;;;16.70;99.90;;;;;;4860517;29;20538;-76
2023/10/21 10:57:29;;;;;;;17.57;10.00;;;16.90;99.90;;;;;;4864209;29;20204;-77
2023/10/21 11:00:03;;;;;;;15.57;9.20;;;17.30;99.90;;;;;;4862520;29;20673;-75
2023/10/21 11:02:57;;;;;;;16.57;10.40;;;17.20;99.90;;;;;;4865688;29;20228;-77
2023/10/21 11:05:36;;;;;;;13.13;9.37;;;17.10;99.90;;;;;;4847092;29;20210;-76
2023/10/21 11:08:21;;;;;;;13.33;9.10;;;16.90;99.90;;;;;;4908324;29;20339;-74
2023/10/21 11:11:44;;;;;;;18.13;10.57;;;16.60;99.90;;;;;;4896681;29;20216;-78
2023/10/21 11:14:57;;;;;;;14.93;10.40;;;16.50;99.90;;;;;;4870016;29;20212;-78
2023/10/21 11:17:42;;;;;;;14.90;10.30;;;16.50;99.90;;;;;;4896533;29;20707;-76
2023/10/21 11:20:31;;;;;;;18.10;11.27;;;16.60;99.90;;;;;;4863225;29;20570;-75
2023/10/21 11:23:13;;;;;;;22.03;11.70;;;16.60;99.90;;;;;;4896863;29;20200;-79
2023/10/21 11:26:13;;;;;;;20.77;12.47;;;16.50;99.90;;;;;;4913203;29;20214;-79
2023/10/21 11:29:07;;;;;;;16.30;11.33;;;16.40;99.90;;;;;;4914962;29;20311;-80
2023/10/21 11:31:59;;;;;;;19.03;12.20;;;16.20;99.90;;;;;;4915125;29;20211;-78
2023/10/21 11:35:04;;;;;;;21.27;11.00;;;16.00;99.90;;;;;;4913373;28;20431;-81
2023/10/21 11:38:03;;;;;;;16.43;11.00;;;16.40;99.90;;;;;;5011328;28;20205;-80
2023/10/21 11:40:59;;;;;;;16.37;10.73;;;16.20;99.90;;;;;;4977989;28;20276;-82
2023/10/21 11:44:00;;;;;;;17.23;11.70;;;16.10;99.90;;;;;;4976852;28;20315;-82
2023/10/21 11:46:55;;;;;;;23.73;12.23;;;16.00;99.90;;;;;;4981040;28;20223;-80
2023/10/21 11:49:30;;;;;;;19.90;11.60;;;16.10;99.90;;;;;;4995360;28;20212;-81
2023/10/21 11:52:14;;;;;;;19.13;11.77;;;16.00;99.90;;;;;;4995576;28;20204;-77
2023/10/21 12:41:37;;;;;;;16.83;11.17;;;17.70;99.90;;;;;;4928902;28;20211;-76
2023/10/21 12:44:37;;;;;;;18.23;11.77;;;17.60;99.90;;;;;;5001524;28;20272;-77
2023/10/21 12:47:36;;;;;;;16.57;11.27;;;17.60;99.90;;;;;;5000765;28;20270;-76
2023/10/21 12:50:30;;;;;;;17.43;11.37;;;17.80;99.90;;;;;;5024046;28;20180;-76
2023/10/21 12:53:26;;;;;;;19.60;11.43;;;17.90;99.90;;;;;;5031982;28;20200;-78
2023/10/21 12:56:09;;;;;;;21.17;11.70;;;18.00;99.90;;;;;;4990414;28;20193;-79
2023/10/21 12:58:47;;;;;;;19.93;11.87;;;18.10;99.90;;;;;;4941805;28;20208;-79
2023/10/21 13:01:30;;;;;;;22.50;11.77;;;18.00;99.90;;;;;;4990738;28;20204;-78
2023/10/21 13:04:37;;;;;;;19.13;11.30;;;18.00;99.90;;;;;;4976407;28;20308;-77
2023/10/21 13:07:11;;;;;;;17.93;11.60;;;17.80;99.90;;;;;;4974382;28;20774;-79
2023/10/21 13:09:55;;;;;;;17.13;11.83;;;18.00;99.90;;;;;;4975037;28;20375;-76
2023/10/21 13:12:54;;;;;;;17.47;11.13;;;18.10;99.90;;;;;;4955704;28;20205;-78
2023/10/21 13:15:38;;;;;;;23.20;12.40;;;18.00;99.90;;;;;;4973810;28;20208;-77
2023/10/21 13:18:27;;;;;;;18.07;11.67;;;17.90;99.90;;;;;;4976349;28;20220;-78
2023/10/21 13:21:08;;;;;;;22.53;11.90;;;17.80;99.90;;;;;;4988715;28;20252;-79
2023/10/21 13:23:43;;;;;;;18.10;12.63;;;17.80;99.90;;;;;;4990447;28;20196;-78
2023/10/21 13:26:43;;;;;;;19.70;12.70;;;17.90;99.90;;;;;;4979916;28;20363;-78
2023/10/21 13:29:21;;;;;;;24.17;12.70;;;17.80;99.90;;;;;;5014388;28;20674;-79
2023/10/21 13:31:56;;;;;;;21.03;12.33;;;17.70;99.90;;;;;;5029194;28;20172;-77
2023/10/21 13:34:38;;;;;;;18.90;12.83;;;17.80;99.90;;;;;;5014704;28;20223;-78
2023/10/21 13:37:23;;;;;;;20.90;12.87;;;17.90;99.90;;;;;;5031144;28;20195;-79
2023/10/21 13:40:16;;;;;;;29.17;13.93;;;18.10;99.90;;;;;;5031263;28;20175;-77
2023/10/21 13:43:04;;;;;;;20.20;13.00;;;18.20;99.90;;;;;;5015630;28;20184;-76
2023/10/21 13:49:38;;;;;;;27.00;13.80;;;18.40;99.90;;;;;;4955207;28;20504;-78
2023/10/21 13:55:33;;;;;;;23.93;13.47;;;18.40;99.90;;;;;;5030855;28;20199;-76
2023/10/21 13:58:42;;;;;;;23.53;14.10;;;18.30;99.90;;;;;;5024710;28;20200;-79
2023/10/21 14:02:18;;;;;;;;;;;;;;;;;;;;;
2023/10/21 14:05:23;;;;;;;32.23;16.00;;;18.00;99.90;;;;;;5031260;28;20183;-77
2023/10/21 14:08:03;;;;;;;26.87;15.40;;;17.90;99.90;;;;;;5013380;28;20292;-79
2023/10/21 14:11:10;;;;;;;31.57;15.73;;;17.80;99.90;;;;;;5011417;28;20568;-80
2023/10/21 14:13:50;;;;;;;26.17;16.30;;;17.40;99.90;;;;;;5006858;28;20199;-79
2023/10/21 14:17:12;;;;;;;26.97;15.07;;;17.50;99.90;;;;;;5016945;28;20211;-76
2023/10/21 14:20:10;;;;;;;25.70;15.63;;;17.30;99.90;;;;;;4997569;28;20207;-76
2023/10/21 14:23:04;;;;;;;27.13;15.17;;;17.30;99.90;;;;;;5014467;28;20267;-78
2023/10/21 14:26:03;;;;;;;25.40;15.53;;;17.30;99.90;;;;;;5030657;28;20179;-76
2023/10/21 14:28:55;;;;;;;30.73;17.37;;;17.30;99.90;;;;;;4996838;28;20285;-76
2023/10/21 14:31:29;;;;;;;25.80;15.90;;;17.20;99.90;;;;;;4997891;28;20202;-78
2023/10/21 14:34:29;;;;;;;26.93;16.37;;;17.10;99.90;;;;;;5029818;28;20580;-79
2023/10/21 14:37:25;;;;;;;30.17;17.03;;;17.10;99.90;;;;;;5030215;28;20260;-77
2023/10/21 14:40:19;;;;;;;29.03;17.50;;;17.10;99.90;;;;;;5014337;28;20555;-76
2023/10/21 14:42:55;;;;;;;28.07;16.70;;;17.20;99.90;;;;;;5011091;28;20782;-76
2023/10/21 14:45:33;;;;;;;29.73;16.90;;;16.90;99.90;;;;;;5030642;28;20197;-76
2023/10/21 14:48:27;;;;;;;30.23;17.20;;;16.80;99.90;;;;;;5012234;28;20229;-75
2023/10/21 14:51:36;;;;;;;35.07;18.13;;;16.80;99.90;;;;;;4997671;28;20203;-77
2023/10/21 14:54:22;;;;;;;26.47;17.63;;;16.80;99.90;;;;;;4998374;28;20219;-77
2023/10/21 14:57:37;;;;;;;30.70;17.97;;;16.60;99.90;;;;;;5016291;28;20198;-77
2023/10/21 15:00:42;;;;;;;29.53;18.73;;;16.40;99.90;;;;;;5030215;28;20238;-77
2023/10/21 15:03:44;;;;;;;39.77;22.10;;;16.50;99.90;;;;;;5016957;28;20800;-77
2023/10/21 15:06:18;;;;;;;30.87;18.33;;;16.30;99.90;;;;;;5030956;28;20171;-77
2023/10/21 15:08:52;;;;;;;30.33;18.27;;;16.20;99.90;;;;;;5013232;28;20682;-74
2023/10/21 15:12:00;;;;;;;34.90;19.23;;;16.10;99.90;;;;;;5000564;28;20179;-76
2023/10/21 15:14:57;;;;;;;29.67;18.37;;;16.00;99.90;;;;;;5030178;28;20622;-76
2023/10/21 15:17:54;;;;;;;34.77;18.43;;;15.90;99.90;;;;;;5014593;28;20226;-78
2023/10/21 15:20:32;;;;;;;33.67;18.97;;;15.80;99.90;;;;;;5006986;28;20574;-78
2023/10/21 15:23:03;;;;;;;30.60;19.60;;;15.70;99.90;;;;;;5030071;28;20200;-78
2023/10/21 15:25:33;;;;;;;31.40;19.73;;;15.70;99.90;;;;;;5013578;28;20183;-76
2023/10/21 15:28:14;;;;;;;30.43;18.30;;;15.50;99.90;;;;;;5029579;28;20242;-78
2023/10/21 15:30:51;;;;;;;29.93;18.67;;;15.20;99.90;;;;;;5006791;28;20195;-78
2023/10/21 15:33:28;;;;;;;33.17;19.10;;;15.30;99.90;;;;;;5029722;28;20231;-79
2023/10/21 15:36:32;;;;;;;38.13;20.53;;;15.20;99.90;;;;;;5015638;28;20246;-80
2023/10/21 15:39:20;;;;;;;31.70;19.30;;;15.10;99.90;;;;;;5014781;28;20207;-77
2023/10/21 15:42:00;;;;;;;31.23;19.33;;;15.00;99.90;;;;;;5016644;28;20192;-78
2023/10/21 15:44:44;;;;;;;31.63;19.63;;;14.90;99.90;;;;;;5033732;28;20196;-78
2023/10/21 15:47:24;;;;;;;36.53;20.73;;;14.80;99.90;;;;;;5029502;28;20183;-78
2023/10/21 15:50:04;;;;;;;36.83;21.47;;;14.80;99.90;;;;;;4999899;28;20251;-78
2023/10/21 15:52:41;;;;;;;41.33;23.40;;;14.80;99.90;;;;;;4996830;28;20207;-77
2023/10/21 15:55:58;;;;;;;46.03;23.53;;;14.60;99.90;;;;;;5003083;28;20286;-78
2023/10/21 15:58:36;;;;;;;33.67;20.87;;;14.70;99.90;;;;;;5015219;28;20617;-76
2023/10/21 16:01:16;;;;;;;34.30;22.27;;;14.50;99.90;;;;;;5033157;28;20195;-76
2023/10/21 16:03:45;;;;;;;39.60;23.37;;;14.40;99.90;;;;;;5031623;28;20317;-79
2023/10/21 16:06:52;;;;;;;36.63;22.30;;;14.30;99.90;;;;;;5033102;28;20196;-77
2023/10/21 16:09:48;;;;;;;37.90;22.47;;;14.20;99.90;;;;;;4933578;29;20226;-78
2023/10/21 16:12:36;;;;;;;32.90;21.27;;;14.10;99.90;;;;;;4902151;29;20223;-79
2023/10/21 16:15:24;;;;;;;34.10;20.93;;;14.30;99.90;;;;;;4886708;29;20207;-79
2023/10/21 16:17:58;;;;;;;41.07;24.10;;;13.90;99.90;;;;;;4917965;29;20393;-76
2023/10/21 16:20:30;;;;;;;39.40;23.30;;;13.90;99.90;;;;;;4932417;29;20657;-78
2023/10/21 16:22:59;;;;;;;38.60;23.57;;;13.80;99.90;;;;;;4933064;29;20527;-77
2023/10/21 16:25:27;;;;;;;43.77;25.60;;;13.80;99.90;;;;;;4933669;29;20225;-77
2023/10/21 16:28:00;;;;;;;42.67;25.93;;;13.80;99.90;;;;;;4933570;29;20290;-78
2023/10/21 16:30:27;;;;;;;45.13;24.67;;;13.80;99.90;;;;;;4902001;29;20195;-78
2023/10/21 16:32:57;;;;;;;36.33;22.90;;;13.70;99.90;;;;;;4933612;29;20316;-77
2023/10/21 16:35:31;;;;;;;46.97;26.57;;;13.70;99.90;;;;;;4931951;29;20294;-78
2023/10/21 16:37:58;;;;;;;47.57;26.00;;;13.70;99.90;;;;;;4916997;29;20642;-78
2023/10/21 16:40:35;;;;;;;53.57;30.03;;;13.60;99.90;;;;;;4933239;29;20627;-78
2023/10/21 16:43:20;;;;;;;49.67;28.97;;;13.70;99.90;;;;;;4917787;29;20265;-74
2023/10/21 16:46:01;;;;;;;42.23;24.13;;;13.60;99.90;;;;;;4952546;28;20211;-77
2023/10/21 16:48:35;;;;;;;43.83;26.47;;;13.60;99.90;;;;;;5031557;28;20220;-77
2023/10/21 16:51:05;;;;;;;42.10;24.90;;;13.50;99.90;;;;;;5033139;28;20269;-76
2023/10/21 16:53:45;;;;;;;47.57;28.30;;;13.40;99.90;;;;;;5015608;28;20536;-76
2023/10/21 16:56:31;;;;;;;53.63;29.60;;;13.40;99.90;;;;;;4976778;28;20452;-77
2023/10/21 16:59:06;;;;;;;50.70;30.17;;;13.30;99.90;;;;;;5011981;28;20195;-76
2023/10/21 17:01:50;;;;;;;57.73;33.90;;;13.30;99.90;;;;;;5032301;28;20638;-77
2023/10/21 17:04:26;;;;;;;58.27;33.10;;;13.40;99.90;;;;;;5031483;28;20668;-76
2023/10/21 17:07:11;;;;;;;61.77;34.53;;;13.30;99.90;;;;;;5031066;28;20203;-75
2023/10/21 17:09:48;;;;;;;65.93;34.30;;;13.30;99.90;;;;;;5031895;28;20693;-76
2023/10/21 17:12:18;;;;;;;67.80;35.27;;;13.30;99.90;;;;;;5014787;28;20227;-76
2023/10/21 17:14:56;;;;;;;66.53;35.47;;;13.30;99.90;;;;;;5031173;28;20203;-76
2023/10/21 17:17:38;;;;;;;61.10;34.20;;;13.30;99.90;;;;;;5031219;28;20215;-75
2023/10/21 17:20:12;;;;;;;61.33;34.97;;;13.30;99.90;;;;;;5014384;28;20183;-75
2023/10/21 17:22:45;;;;;;;66.20;35.67;;;13.20;99.90;;;;;;5006552;28;20195;-76
2023/10/21 17:25:14;;;;;;;62.20;35.73;;;13.30;99.90;;;;;;5032435;28;20303;-77
2023/10/21 17:27:48;;;;;;;69.50;35.93;;;13.20;99.90;;;;;;5030883;28;20195;-76
2023/10/21 17:30:16;;;;;;;68.30;35.83;;;13.20;99.90;;;;;;5012691;28;20277;-80
2023/10/21 17:32:54;;;;;;;70.80;36.10;;;13.20;99.90;;;;;;5030549;28;20682;-78
2023/10/21 17:35:42;;;;;;;67.37;35.53;;;13.40;99.90;;;;;;5009880;28;20231;-79
2023/10/21 17:38:37;;;;;;;;;;;;;;;;;;;;;
2023/10/21 17:41:21;;;;;;;60.13;33.97;;;13.20;99.90;;;;;;5031095;28;20655;-78
2023/10/21 17:44:08;;;;;;;71.00;38.10;;;13.20;99.90;;;;;;5027944;28;20199;-78
2023/10/21 17:47:45;;;;;;;73.07;38.00;;;12.90;99.90;;;;;;5012722;28;20196;-77
2023/10/21 17:50:46;;;;;;;69.57;36.60;;;13.20;99.90;;;;;;5030530;28;20309;-78
2023/10/21 17:53:54;;;;;;;55.40;31.50;;;13.10;99.90;;;;;;5010400;28;20630;-77
2023/10/21 17:59:57;;;;;;;54.90;31.60;;;12.60;99.90;;;;;;5010940;28;20208;-75
2023/10/21 18:02:45;;;;;;;59.53;32.33;;;12.60;99.90;;;;;;4969517;28;20289;-78
2023/10/21 18:05:57;;;;;;;68.70;36.57;;;12.60;99.90;;;;;;5011669;28;20203;-76
2023/10/21 18:09:19;;;;;;;83.50;37.67;;;12.70;99.90;;;;;;4959189;28;20258;-78
2023/10/21 18:11:57;;;;;;;69.33;36.90;;;12.60;99.90;;;;;;4968358;28;20712;-78
2023/10/21 18:14:40;;;;;;;74.40;38.37;;;12.40;99.90;;;;;;4968318;28;20565;-77
2023/10/21 18:17:48;;;;;;;67.80;36.57;;;12.50;99.90;;;;;;4949786;28;20221;-76
2023/10/21 18:21:18;;;;;;;74.67;37.67;;;12.40;99.90;;;;;;4955898;28;20213;-78
2023/10/21 18:23:59;;;;;;;66.63;35.93;;;12.50;99.90;;;;;;4899225;29;20214;-76